createdAt,value
2022-08-18T00:02:25.008Z,100555.44
2022-08-18T00:04:57.360Z,100544.78
2022-08-18T00:07:31.701Z,100544.78
2022-08-18T00:10:00.253Z,100544.97
2022-08-18T00:12:47.400Z,100550.56
2022-08-18T00:15:17.933Z,100559.66
2022-08-18T00:17:45.555Z,100555.28
2022-08-18T00:20:21.775Z,100561.75
2022-08-18T00:22:49.958Z,100564.66
2022-08-18T00:25:19.189Z,100573.84
2022-08-18T00:27:46.177Z,100575.75
2022-08-18T00:30:18.762Z,100588.63
2022-08-18T00:32:51.512Z,100569.75
2022-08-18T00:35:37.909Z,100567.31
2022-08-18T00:38:08.052Z,100551.19
2022-08-18T00:40:54.524Z,100559.38
2022-08-18T00:43:48.054Z,100560.47
2022-08-18T00:46:36.958Z,100565.00
2022-08-18T00:49:05.833Z,100565.09
2022-08-18T00:51:46.736Z,100562.47
2022-08-18T00:54:23.269Z,100563.44
2022-08-18T00:56:58.332Z,100562.56
2022-08-18T00:59:50.817Z,100561.78
2022-08-18T01:02:24.773Z,100561.88
2022-08-18T01:04:56.682Z,100567.31
2022-08-18T01:07:45.899Z,100562.06
2022-08-18T01:10:16.594Z,100566.59
2022-08-18T01:12:46.813Z,100575.69
2022-08-18T01:15:29.164Z,100580.25
2022-08-18T01:18:34.827Z,100582.16
2022-08-18T01:21:34.403Z,100584.09
2022-08-18T01:24:05.199Z,100572.47
2022-08-18T01:26:37.799Z,100570.72
2022-08-18T01:29:18.551Z,100574.50
2022-08-18T01:31:55.455Z,100579.03
2022-08-18T01:34:27.395Z,100578.25
2022-08-18T01:36:55.458Z,100583.75
2022-08-18T01:41:25.075Z,100582.97
2022-08-18T01:42:11.563Z,100578.69
2022-08-18T01:44:41.497Z,100574.25
2022-08-18T01:47:11.509Z,100579.75
2022-08-18T01:49:43.099Z,100565.50
2022-08-18T01:52:17.826Z,100563.84
2022-08-18T01:54:44.671Z,100573.97
2022-08-18T01:57:14.569Z,100567.88
2022-08-18T01:59:43.001Z,100562.63
2022-08-18T02:02:18.558Z,100555.47
2022-08-18T02:04:47.415Z,100555.66
2022-08-18T02:07:14.898Z,100563.09
2022-08-18T02:09:43.153Z,100559.59
2022-08-18T02:12:11.306Z,100567.00
2022-08-18T02:14:39.094Z,100564.50
2022-08-18T02:17:09.350Z,100565.50
2022-08-18T02:19:40.782Z,100563.00
2022-08-18T02:22:09.740Z,100565.00
2022-08-18T02:24:37.669Z,100572.31
2022-08-18T02:27:05.429Z,100564.41
2022-08-18T02:33:38.911Z,100565.09
2022-08-18T02:36:14.708Z,100571.53
2022-08-18T02:38:42.800Z,100567.19
2022-08-18T02:41:12.725Z,100569.09
2022-08-18T02:43:41.997Z,100573.72
2022-08-18T02:46:09.898Z,100581.97
2022-08-18T02:48:36.694Z,100580.22
2022-08-18T02:51:16.033Z,100583.00
2022-08-18T02:53:46.950Z,100573.25
2022-08-18T02:56:40.100Z,100576.91
2022-08-18T02:59:14.957Z,100578.81
2022-08-18T03:01:46.061Z,100579.78
2022-08-18T03:04:17.500Z,100586.16
2022-08-18T03:06:45.332Z,100579.78
2022-08-18T03:09:16.142Z,100576.28
2022-08-18T03:11:43.817Z,100577.22
2022-08-18T03:14:11.810Z,100572.78
2022-08-18T03:16:45.662Z,100576.34
2022-08-18T03:19:31.823Z,100569.31
2022-08-18T03:22:02.814Z,100576.59
2022-08-18T03:24:32.781Z,100577.59
2022-08-18T03:27:01.502Z,100572.19
2022-08-18T03:29:32.360Z,100581.25
2022-08-18T03:32:01.490Z,100579.50
2022-08-18T03:34:28.363Z,100578.63
2022-08-18T03:36:55.305Z,100584.91
2022-08-18T03:39:25.215Z,100593.00
2022-08-18T03:42:01.016Z,100595.69
2022-08-18T03:44:38.445Z,100593.00
2022-08-18T03:47:11.839Z,100595.69
2022-08-18T03:49:39.291Z,100598.47
2022-08-18T03:52:09.655Z,100594.91
2022-08-18T03:54:38.804Z,100590.31
2022-08-18T03:57:09.287Z,100594.81
2022-08-18T03:59:36.101Z,100592.19
2022-08-18T04:02:05.066Z,100586.78
2022-08-18T04:04:32.217Z,100594.06
2022-08-18T04:07:06.043Z,100595.88
2022-08-18T04:09:35.095Z,100591.50
2022-08-18T04:12:15.454Z,100587.91
2022-08-18T04:14:48.636Z,100594.38
2022-08-18T04:17:23.372Z,100598.91
2022-08-18T04:19:52.246Z,100599.84
2022-08-18T04:22:19.121Z,100596.38
2022-08-18T04:24:46.883Z,100608.94
2022-08-18T04:27:13.794Z,100606.25
2022-08-18T04:29:40.580Z,100609.88
2022-08-18T04:32:07.855Z,100613.47
2022-08-18T04:34:35.425Z,100614.34
2022-08-18T04:37:02.912Z,100617.81
2022-08-18T04:39:30.193Z,100615.19
2022-08-18T04:41:57.006Z,100615.13
2022-08-18T04:44:23.796Z,100622.28
2022-08-18T04:46:53.190Z,100625.84
2022-08-18T04:49:25.709Z,100628.44
2022-08-18T04:52:36.098Z,100625.69
2022-08-18T04:55:01.015Z,100622.91
2022-08-18T04:57:29.011Z,100628.06
2022-08-18T05:00:00.700Z,100635.81
2022-08-18T05:02:28.080Z,100638.13
2022-08-18T05:04:55.011Z,100638.34
2022-08-18T05:07:25.534Z,100639.34
2022-08-18T05:09:54.939Z,100634.72
2022-08-18T05:12:25.827Z,100628.97
2022-08-18T05:14:54.331Z,100632.38
2022-08-18T05:17:21.136Z,100632.28
2022-08-18T05:19:49.751Z,100645.69
2022-08-18T05:22:19.582Z,100644.59
2022-08-18T05:24:54.589Z,100646.56
2022-08-18T05:27:21.485Z,100643.31
2022-08-18T05:29:51.578Z,100640.78
2022-08-18T05:32:38.274Z,100647.31
2022-08-18T05:35:14.116Z,100653.41
2022-08-18T05:37:59.737Z,100652.81
2022-08-18T05:40:26.777Z,100649.50
2022-08-18T05:42:57.342Z,100651.25
2022-08-18T05:45:24.766Z,100659.19
2022-08-18T05:47:51.763Z,100656.88
2022-08-18T05:50:20.947Z,100642.59
2022-08-18T05:52:59.157Z,100648.88
2022-08-18T05:55:56.246Z,100656.66
2022-08-18T05:58:33.334Z,100645.41
2022-08-18T06:01:14.174Z,100656.56
2022-08-18T06:03:48.981Z,100645.00
2022-08-18T06:06:22.912Z,100651.31
2022-08-18T06:09:03.683Z,100654.81
2022-08-18T06:11:30.473Z,100657.31
2022-08-18T06:13:59.488Z,100664.25
2022-08-18T06:17:04.938Z,100675.06
2022-08-18T06:20:04.706Z,100674.94
2022-08-18T06:23:18.189Z,100680.41
2022-08-18T06:26:19.766Z,100683.22
2022-08-18T06:29:16.389Z,100679.47
2022-08-18T06:32:05.349Z,100682.66
2022-08-18T06:34:43.818Z,100683.00
2022-08-18T06:37:18.719Z,100686.84
2022-08-18T06:39:52.320Z,100675.31
2022-08-18T06:42:30.371Z,100678.22
2022-08-18T06:45:12.681Z,100685.72
2022-08-18T06:48:05.993Z,100687.63
2022-08-18T06:50:54.400Z,100689.56
2022-08-18T06:53:28.048Z,100684.50
2022-08-18T06:55:55.933Z,100680.84
2022-08-18T06:58:30.456Z,100682.22
2022-08-18T07:01:01.914Z,100694.47
2022-08-18T07:03:43.834Z,100703.34
2022-08-18T07:06:23.311Z,100695.16
2022-08-18T07:08:55.708Z,100701.44
2022-08-18T07:11:34.078Z,100706.66
2022-08-18T07:14:22.845Z,100715.06
2022-08-18T07:16:59.813Z,100703.34
2022-08-18T07:19:30.933Z,100713.28
2022-08-18T07:22:07.271Z,100717.84
2022-08-18T07:24:44.599Z,100715.94
2022-08-18T07:27:19.175Z,100709.44
2022-08-18T07:30:25.146Z,100725.44
2022-08-18T07:33:21.154Z,100726.31
2022-08-18T07:35:59.652Z,100714.72
2022-08-18T07:38:45.285Z,100718.09
2022-08-18T07:41:20.405Z,100720.63
2022-08-18T07:43:52.633Z,100735.91
2022-08-18T07:46:45.776Z,100739.50
2022-08-18T07:49:22.305Z,100732.94
2022-08-18T07:51:57.754Z,100727.06
2022-08-18T07:54:54.812Z,100731.19
2022-08-18T07:57:46.403Z,100732.75
2022-08-18T08:00:57.455Z,100736.94
2022-08-18T08:04:25.711Z,100736.69
2022-08-18T08:07:24.929Z,100720.88
2022-08-18T08:10:22.596Z,100733.88
2022-08-18T08:13:31.280Z,100740.47
2022-08-18T08:16:22.663Z,100737.41
2022-08-18T08:19:59.003Z,100741.84
2022-08-18T08:22:41.275Z,100740.03
2022-08-18T08:25:46.420Z,100736.09
2022-08-18T08:28:51.377Z,100732.03
2022-08-18T08:31:59.639Z,100730.50
2022-08-18T08:34:53.470Z,100738.56
2022-08-18T08:37:33.288Z,100735.00
2022-08-18T08:40:13.644Z,100736.38
2022-08-18T08:42:55.087Z,100745.28
2022-08-18T08:45:32.681Z,100745.28
2022-08-18T08:48:14.627Z,100755.47
2022-08-18T08:50:57.092Z,100747.41
2022-08-18T08:53:38.337Z,100754.22
2022-08-18T08:56:15.687Z,100744.91
2022-08-18T08:59:01.260Z,100743.44
2022-08-18T09:01:32.451Z,100741.03
2022-08-18T09:04:28.036Z,100734.84
2022-08-18T09:07:23.510Z,100725.00
2022-08-18T09:10:30.285Z,100731.59
2022-08-18T09:13:34.842Z,100733.81
2022-08-18T09:16:38.579Z,100719.47
2022-08-18T09:19:31.702Z,100730.13
2022-08-18T09:22:36.758Z,100732.09
2022-08-18T09:25:39.226Z,100726.44
2022-08-18T09:28:39.414Z,100724.16
2022-08-18T09:31:07.277Z,100715.53
2022-08-18T09:33:44.414Z,100719.78
2022-08-18T09:36:45.653Z,100710.97
2022-08-18T09:39:58.939Z,100722.91
2022-08-18T09:42:51.638Z,100739.63
2022-08-18T09:45:33.333Z,100735.34
2022-08-18T09:48:12.841Z,100747.94
2022-08-18T09:50:57.618Z,100749.69
2022-08-18T09:53:45.727Z,100751.91
2022-08-18T09:56:15.707Z,100750.94
2022-08-18T09:58:55.929Z,100745.59
2022-08-18T10:01:34.388Z,100744.75
2022-08-18T10:04:15.380Z,100750.94
2022-08-18T10:06:48.221Z,100743.44
2022-08-18T10:09:36.862Z,100751.28
2022-08-18T10:12:27.338Z,100742.09
2022-08-18T10:15:32.882Z,100737.63
2022-08-18T10:21:31.169Z,100741.28
2022-08-18T10:24:32.278Z,100733.72
2022-08-18T10:26:54.969Z,100737.97
2022-08-18T10:29:25.893Z,100735.16
2022-08-18T10:31:56.011Z,100729.41
2022-08-18T10:34:51.897Z,100729.94
2022-08-18T10:37:38.828Z,100739.19
2022-08-18T10:40:14.226Z,100734.31
2022-08-18T10:42:53.143Z,100739.09
2022-08-18T10:45:30.082Z,100729.84
2022-08-18T10:48:31.840Z,100729.53
2022-08-18T10:54:18.793Z,100723.03
2022-08-18T10:57:08.564Z,100722.81
2022-08-18T10:59:57.692Z,100715.22
2022-08-18T11:02:43.996Z,100716.69
2022-08-18T11:05:17.108Z,100721.56
2022-08-18T11:07:52.102Z,100719.59
2022-08-18T11:10:57.739Z,100725.91
2022-08-18T11:13:58.495Z,100732.22
2022-08-18T11:17:07.038Z,100722.66
2022-08-18T11:19:43.268Z,100729.41
2022-08-18T11:22:31.482Z,100736.28
2022-08-18T11:25:01.081Z,100728.75
2022-08-18T11:27:37.476Z,100722.75
2022-08-18T11:30:09.872Z,100727.00
2022-08-18T11:32:42.659Z,100716.78
2022-08-18T11:35:27.644Z,100698.38
2022-08-18T11:38:04.026Z,100705.25
2022-08-18T11:41:10.819Z,100711.34
2022-08-18T11:43:30.016Z,100708.50
2022-08-18T11:46:37.083Z,100709.16
2022-08-18T11:49:26.317Z,100707.97
2022-08-18T11:52:03.223Z,100710.88
2022-08-18T11:57:54.365Z,100702.84
2022-08-18T12:00:46.477Z,100703.94
2022-08-18T12:03:31.686Z,100699.03
2022-08-18T12:06:26.640Z,100711.19
2022-08-18T12:09:06.476Z,100701.31
2022-08-18T12:11:41.285Z,100690.56
2022-08-18T12:14:31.271Z,100689.84
2022-08-18T12:17:01.689Z,100699.09
2022-08-18T12:19:31.086Z,100686.69
2022-08-18T12:22:01.998Z,100674.31
2022-08-18T12:24:39.201Z,100675.69
2022-08-18T12:27:20.402Z,100658.69
2022-08-18T12:29:48.147Z,100667.25
2022-08-18T12:32:18.208Z,100671.34
2022-08-18T12:37:59.571Z,100665.59
2022-08-18T12:40:27.569Z,100665.06
2022-08-18T12:42:56.056Z,100661.75
2022-08-18T12:48:11.841Z,100671.19
2022-08-18T12:50:50.019Z,100667.94
2022-08-18T12:53:30.088Z,100662.09
2022-08-18T12:56:24.865Z,100656.25
2022-08-18T12:58:52.920Z,100643.84
2022-08-18T13:01:21.582Z,100648.28
2022-08-18T13:04:11.416Z,100646.56
2022-08-18T13:07:00.140Z,100647.31
2022-08-18T13:09:35.015Z,100642.59
2022-08-18T13:12:14.793Z,100644.84
2022-08-18T13:14:43.495Z,100642.34
2022-08-18T13:17:30.298Z,100636.69
2022-08-18T13:19:59.420Z,100635.53
2022-08-18T13:22:32.019Z,100639.63
2022-08-18T13:25:03.665Z,100647.34
2022-08-18T13:27:33.639Z,100647.81
2022-08-18T13:30:30.387Z,100647.31
2022-08-18T13:33:02.690Z,100648.94
2022-08-18T13:35:37.962Z,100649.78
2022-08-18T13:38:22.094Z,100637.00
2022-08-18T13:40:57.534Z,100647.03
2022-08-18T13:43:39.393Z,100648.28
2022-08-18T13:46:09.181Z,100644.09
2022-08-18T13:48:37.731Z,100644.63
2022-08-18T13:51:08.266Z,100644.13
2022-08-18T13:53:50.460Z,100645.09
2022-08-18T13:56:31.446Z,100646.47
2022-08-18T13:58:58.822Z,100662.13
2022-08-18T14:01:45.045Z,100653.28
2022-08-18T14:04:15.017Z,100663.47
2022-08-18T14:06:56.289Z,100664.72
2022-08-18T14:09:27.722Z,100659.50
2022-08-18T14:12:15.901Z,100665.16
2022-08-18T14:14:53.248Z,100668.41
2022-08-18T14:17:22.723Z,100666.88
2022-08-18T14:20:15.281Z,100674.34
2022-08-18T14:23:21.506Z,100671.59
2022-08-18T14:26:08.544Z,100662.81
2022-08-18T14:28:35.488Z,100661.06
2022-08-18T14:31:07.036Z,100658.22
2022-08-18T14:33:50.496Z,100659.22
2022-08-18T14:36:20.155Z,100653.75
2022-08-18T14:38:58.640Z,100654.72
2022-08-18T14:41:27.198Z,100650.25
2022-08-18T14:44:12.198Z,100650.25
2022-08-18T14:46:40.817Z,100651.38
2022-08-18T14:49:08.030Z,100652.72
2022-08-18T14:51:35.344Z,100654.22
2022-08-18T14:54:02.303Z,100651.97
2022-08-18T14:56:29.433Z,100650.94
2022-08-18T14:58:56.907Z,100644.22
2022-08-18T15:01:24.708Z,100638.72
2022-08-18T15:03:54.376Z,100635.69
2022-08-18T15:06:26.993Z,100632.53
2022-08-18T15:08:57.108Z,100638.09
2022-08-18T15:11:24.973Z,100632.75
2022-08-18T15:13:55.151Z,100631.56
2022-08-18T15:16:27.162Z,100624.41
2022-08-18T15:18:59.281Z,100606.88
2022-08-18T15:21:47.825Z,100599.06
2022-08-18T15:24:39.696Z,100604.47
2022-08-18T15:27:10.428Z,100607.53
2022-08-18T15:29:41.374Z,100612.19
2022-08-18T15:32:10.233Z,100606.00
2022-08-18T15:34:47.330Z,100606.22
2022-08-18T15:37:20.403Z,100597.28
2022-08-18T15:40:02.562Z,100599.22
2022-08-18T15:42:29.839Z,100604.47
2022-08-18T15:44:56.834Z,100605.22
2022-08-18T15:47:25.130Z,100604.03
2022-08-18T15:49:52.456Z,100611.97
2022-08-18T15:52:24.473Z,100607.09
2022-08-18T15:54:57.008Z,100608.31
2022-08-18T15:57:39.656Z,100609.50
2022-08-18T16:00:08.453Z,100607.09
2022-08-18T16:02:41.058Z,100608.84
2022-08-18T16:05:14.150Z,100605.13
2022-08-18T16:07:45.246Z,100607.53
2022-08-18T16:10:14.604Z,100598.09
2022-08-18T16:12:45.766Z,100595.69
2022-08-18T16:15:19.134Z,100597.09
2022-08-18T16:17:47.725Z,100586.66
2022-08-18T16:20:14.804Z,100579.03
2022-08-18T16:22:41.688Z,100586.97
2022-08-18T16:25:09.332Z,100580.31
2022-08-18T16:27:41.040Z,100580.09
2022-08-18T16:30:18.536Z,100585.31
2022-08-18T16:32:47.131Z,100590.75
2022-08-18T16:35:15.388Z,100590.75
2022-08-18T16:37:43.103Z,100585.31
2022-08-18T16:40:10.925Z,100584.66
2022-08-18T16:42:37.857Z,100591.84
2022-08-18T16:45:06.313Z,100584.66
2022-08-18T16:47:38.801Z,100580.09
2022-08-18T16:50:12.461Z,100585.53
2022-08-18T16:52:40.084Z,100589.22
2022-08-18T16:55:09.738Z,100593.81
2022-08-18T16:57:58.896Z,100593.03
2022-08-18T17:00:45.127Z,100588.81
2022-08-18T17:03:30.844Z,100591.78
2022-08-18T17:06:03.300Z,100593.72
2022-08-18T17:08:34.127Z,100592.09
2022-08-18T17:11:09.290Z,100598.41
2022-08-18T17:13:37.783Z,100590.34
2022-08-18T17:16:05.130Z,100583.16
2022-08-18T17:18:32.218Z,100585.88
2022-08-18T17:21:06.953Z,100586.00
2022-08-18T17:23:34.608Z,100583.41
2022-08-18T17:26:16.437Z,100576.22
2022-08-18T17:28:52.558Z,100585.34
2022-08-18T17:31:24.570Z,100581.00
2022-08-18T17:33:57.701Z,100577.53
2022-08-18T17:36:53.062Z,100576.00
2022-08-18T17:39:26.314Z,100586.00
2022-08-18T17:42:11.666Z,100589.69
2022-08-18T17:44:52.149Z,100587.13
2022-08-18T17:47:27.030Z,100594.31
2022-08-18T17:50:27.985Z,100598.63
2022-08-18T17:53:05.615Z,100593.09
2022-08-18T17:55:49.705Z,100597.53
2022-08-18T17:58:42.546Z,100603.81
2022-08-18T18:01:12.570Z,100603.09
2022-08-18T18:03:40.859Z,100607.53
2022-08-18T18:06:18.159Z,100611.25
2022-08-18T18:08:54.526Z,100611.25
2022-08-18T18:11:31.358Z,100612.31
2022-08-18T18:14:01.206Z,100600.69
2022-08-18T18:16:35.402Z,100596.13
2022-08-18T18:19:07.775Z,100603.06
2022-08-18T18:21:55.272Z,100603.84
2022-08-18T18:24:33.441Z,100612.97
2022-08-18T18:27:00.718Z,100601.22
2022-08-18T18:29:35.927Z,100607.53
2022-08-18T18:32:48.304Z,100616.66
2022-08-18T18:35:53.118Z,100607.75
2022-08-18T18:38:31.943Z,100614.16
2022-08-18T18:41:06.696Z,100619.72
2022-08-18T18:43:41.090Z,100624.28
2022-08-18T18:46:30.186Z,100618.63
2022-08-18T18:49:20.706Z,100614.06
2022-08-18T18:52:07.500Z,100616.00
2022-08-18T18:55:06.047Z,100617.28
2022-08-18T18:57:51.795Z,100620.13
2022-08-18T19:00:40.533Z,100627.41
2022-08-18T19:03:14.693Z,100635.75
2022-08-18T19:06:15.281Z,100634.13
2022-08-18T19:09:04.845Z,100629.66
2022-08-18T19:12:07.108Z,100636.19
2022-08-18T19:14:40.975Z,100639.00
2022-08-18T19:17:13.478Z,100642.69
2022-08-18T19:19:55.361Z,100641.94
2022-08-18T19:22:54.691Z,100634.13
2022-08-18T19:25:25.721Z,100630.59
2022-08-18T19:28:07.930Z,100618.09
2022-08-18T19:30:40.494Z,100619.06
2022-08-18T19:33:11.427Z,100618.31
2022-08-18T19:35:59.088Z,100620.25
2022-08-18T19:38:42.817Z,100624.91
2022-08-18T19:41:39.170Z,100629.81
2022-08-18T19:44:30.200Z,100638.91
2022-08-18T19:47:30.573Z,100634.69
2022-08-18T19:50:21.460Z,100632.94
2022-08-18T19:53:09.473Z,100624.00
2022-08-18T19:55:51.138Z,100635.84
2022-08-18T19:58:37.342Z,100631.50
2022-08-18T20:01:47.121Z,100639.84
2022-08-18T20:05:03.513Z,100634.94
2022-08-18T20:08:09.235Z,100630.88
2022-08-18T20:11:41.183Z,100636.59
2022-08-18T20:14:13.226Z,100642.34
2022-08-18T20:16:44.670Z,100649.72
2022-08-18T20:19:42.901Z,100655.47
2022-08-18T20:22:36.347Z,100663.66
2022-08-18T20:25:42.582Z,100667.53
2022-08-18T20:28:21.653Z,100657.66
2022-08-18T20:31:12.748Z,100659.78
2022-08-18T20:34:14.076Z,100662.72
2022-08-18T20:36:43.250Z,100666.50
2022-08-18T20:39:54.398Z,100657.69
2022-08-18T20:42:21.113Z,100668.66
2022-08-18T20:44:51.648Z,100660.69
2022-08-18T20:47:45.691Z,100666.31
2022-08-18T20:50:51.319Z,100657.72
2022-08-18T20:53:56.177Z,100662.56
2022-08-18T20:56:43.437Z,100678.06
2022-08-18T20:59:39.339Z,100679.22
2022-08-18T21:02:38.416Z,100687.25
2022-08-18T21:05:08.933Z,100677.47
2022-08-18T21:08:17.088Z,100673.00
2022-08-18T21:10:49.135Z,100675.84
2022-08-18T21:13:41.433Z,100680.59
2022-08-18T21:16:11.550Z,100682.50
2022-08-18T21:18:48.622Z,100674.56
2022-08-18T21:21:30.490Z,100682.78
2022-08-18T21:24:02.713Z,100692.97
2022-08-18T21:26:33.059Z,100689.44
2022-08-18T21:29:12.377Z,100689.63
2022-08-18T21:31:45.121Z,100695.06
2022-08-18T21:34:33.363Z,100696.22
2022-08-18T21:37:06.345Z,100703.66
2022-08-18T21:39:34.882Z,100695.69
2022-08-18T21:42:02.320Z,100694.94
2022-08-18T21:44:41.640Z,100698.63
2022-08-18T21:47:17.341Z,100710.34
2022-08-18T21:50:00.132Z,100711.41
2022-08-18T21:52:30.840Z,100715.94
2022-08-18T21:55:05.645Z,100714.19
2022-08-18T21:58:17.876Z,100708.19
2022-08-18T22:01:24.852Z,100700.25
2022-08-18T22:03:58.265Z,100703.25
2022-08-18T22:06:33.746Z,100696.16
2022-08-18T22:09:37.723Z,100702.72
2022-08-18T22:12:51.812Z,100697.56
2022-08-18T22:15:26.419Z,100701.25
2022-08-18T22:18:00.535Z,100692.28
2022-08-18T22:20:48.342Z,100699.41
2022-08-18T22:23:33.387Z,100694.19
2022-08-18T22:26:25.369Z,100691.69
2022-08-18T22:29:10.078Z,100691.69
2022-08-18T22:31:43.259Z,100679.44
2022-08-18T22:34:28.946Z,100675.50
2022-08-18T22:37:09.809Z,100678.41
2022-08-18T22:39:55.158Z,100681.13
2022-08-18T22:42:30.308Z,100683.81
2022-08-18T22:45:00.204Z,100687.50
2022-08-18T22:47:30.104Z,100697.44
2022-08-18T22:50:01.621Z,100692.09
2022-08-18T22:52:37.423Z,100689.50
2022-08-18T22:55:09.582Z,100690.63
2022-08-18T22:57:38.887Z,100696.06
2022-08-18T23:00:11.921Z,100704.16
2022-08-18T23:02:39.028Z,100705.94
2022-08-18T23:05:06.904Z,100709.44
2022-08-18T23:07:34.105Z,100714.84
2022-08-18T23:10:01.026Z,100720.44
2022-08-18T23:12:27.851Z,100716.91
2022-08-18T23:14:54.906Z,100715.28
2022-08-18T23:17:21.936Z,100715.44
2022-08-18T23:19:52.278Z,100703.16
2022-08-18T23:22:19.401Z,100706.03
2022-08-18T23:24:46.235Z,100702.72
2022-08-18T23:27:13.122Z,100696.69
2022-08-18T23:29:41.186Z,100694.16
2022-08-18T23:32:08.164Z,100690.97
2022-08-18T23:34:36.576Z,100689.41
2022-08-18T23:37:05.027Z,100693.13
2022-08-18T23:39:34.597Z,100704.03
2022-08-18T23:42:03.748Z,100698.72
2022-08-18T23:44:31.015Z,100697.78
2022-08-18T23:46:59.812Z,100698.63
2022-08-18T23:49:28.528Z,100700.47
2022-08-18T23:51:56.089Z,100706.66
2022-08-18T23:54:31.623Z,100709.19
2022-08-18T23:56:58.771Z,100707.34
2022-08-18T23:59:27.582Z,100706.31
